createdAt,value
2019-02-10T00:00:19.998Z,0
2019-02-10T00:01:30.073Z,0
2019-02-10T00:07:41.582Z,0
2019-02-10T00:08:51.836Z,0
2019-02-10T00:10:02.605Z,0
2019-02-10T00:11:12.756Z,0
2019-02-10T00:12:22.823Z,0
2019-02-10T00:13:32.963Z,0
2019-02-10T00:14:43.041Z,0
2019-02-10T00:15:53.115Z,0
2019-02-10T00:17:03.224Z,0
2019-02-10T00:18:13.335Z,0
2019-02-10T00:19:22.986Z,0
2019-02-10T00:20:32.540Z,0
2019-02-10T00:21:42.600Z,0
2019-02-10T00:22:52.647Z,0
2019-02-10T00:24:02.449Z,0
2019-02-10T00:25:12.580Z,0
2019-02-10T00:26:22.643Z,0
2019-02-10T00:27:32.725Z,0
2019-02-10T00:28:42.533Z,0
2019-02-10T00:29:52.607Z,0
2019-02-10T00:31:02.765Z,0
2019-02-10T00:32:12.830Z,0
2019-02-10T00:33:22.901Z,0
2019-02-10T00:34:32.976Z,0
2019-02-10T00:35:43.043Z,0
2019-02-10T00:36:53.102Z,0
2019-02-10T00:38:03.231Z,0
2019-02-10T00:39:13.060Z,0
2019-02-10T00:40:22.606Z,0
2019-02-10T00:41:32.470Z,0
2019-02-10T00:42:42.537Z,0
2019-02-10T00:43:52.594Z,0
2019-02-10T00:45:02.632Z,0
2019-02-10T00:46:12.435Z,0
2019-02-10T00:47:22.508Z,0
2019-02-10T00:48:32.576Z,0
2019-02-10T00:49:42.640Z,0
2019-02-10T00:50:52.687Z,0
2019-02-10T00:52:02.224Z,0
2019-02-10T00:53:12.047Z,0
2019-02-10T00:54:22.162Z,0
2019-02-10T00:55:31.973Z,0
2019-02-10T00:56:42.010Z,0
2019-02-10T00:57:52.057Z,0
2019-02-10T00:59:01.843Z,0
2019-02-10T01:00:12.770Z,0
2019-02-10T01:01:23.040Z,0
2019-02-10T01:02:33.530Z,0
2019-02-10T01:03:43.345Z,0
2019-02-10T01:04:53.408Z,0
2019-02-10T01:06:03.475Z,0
2019-02-10T01:07:13.274Z,0
2019-02-10T01:08:23.347Z,0
2019-02-10T01:09:33.145Z,0
2019-02-10T01:10:43.203Z,0
2019-02-10T01:11:53.013Z,0
2019-02-10T01:13:03.090Z,0
2019-02-10T01:14:13.158Z,0
2019-02-10T01:15:23.170Z,0
2019-02-10T01:16:32.964Z,0
2019-02-10T01:17:43.027Z,0
2019-02-10T01:18:53.083Z,0
2019-02-10T01:20:02.650Z,0
2019-02-10T01:21:12.536Z,0
2019-02-10T01:22:22.604Z,0
2019-02-10T01:23:32.705Z,0
2019-02-10T01:24:42.493Z,0
2019-02-10T01:25:52.038Z,0
2019-02-10T01:27:02.089Z,0
2019-02-10T01:28:12.142Z,0
2019-02-10T01:29:22.000Z,0
2019-02-10T01:30:32.056Z,0
2019-02-10T01:31:42.100Z,0
2019-02-10T01:32:52.144Z,0
2019-02-10T01:34:02.190Z,0
2019-02-10T01:35:12.245Z,0
2019-02-10T01:36:22.295Z,0
2019-02-10T01:37:32.071Z,0
2019-02-10T01:38:42.131Z,0
2019-02-10T01:39:52.193Z,0
2019-02-10T01:41:02.235Z,0
2019-02-10T01:42:12.310Z,0
2019-02-10T01:43:22.345Z,0
2019-02-10T01:44:32.400Z,0
2019-02-10T01:45:42.192Z,0
2019-02-10T01:46:52.497Z,0
2019-02-10T01:48:02.035Z,0
2019-02-10T01:49:12.112Z,0
2019-02-10T01:50:22.162Z,0
2019-02-10T01:51:32.211Z,0
2019-02-10T01:52:42.054Z,0
2019-02-10T01:53:52.113Z,0
2019-02-10T01:55:02.151Z,0
2019-02-10T01:56:12.201Z,0
2019-02-10T01:57:22.025Z,0
2019-02-10T01:58:32.070Z,0
2019-02-10T01:59:42.118Z,0
2019-02-10T02:00:51.927Z,0
2019-02-10T02:02:01.733Z,0
2019-02-10T02:03:11.525Z,0
2019-02-10T02:04:21.320Z,0
2019-02-10T02:05:31.111Z,0
2019-02-10T02:06:41.173Z,0
2019-02-10T02:07:51.245Z,0
2019-02-10T02:09:01.302Z,0
2019-02-10T02:10:11.418Z,0
2019-02-10T02:11:21.480Z,0
2019-02-10T02:12:31.562Z,0
2019-02-10T02:13:41.137Z,0
2019-02-10T02:14:50.932Z,0
2019-02-10T02:16:01.132Z,0
2019-02-10T02:17:11.199Z,0
2019-02-10T02:18:21.246Z,0
2019-02-10T02:19:31.036Z,0
2019-02-10T02:20:40.595Z,0
2019-02-10T02:21:50.700Z,0
2019-02-10T02:23:00.378Z,0
2019-02-10T02:24:10.219Z,0
2019-02-10T02:25:20.051Z,0
2019-02-10T02:26:29.891Z,0
2019-02-10T02:27:39.680Z,0
2019-02-10T02:28:49.487Z,0
2019-02-10T02:29:59.287Z,0
2019-02-10T02:31:09.991Z,0
2019-02-10T02:32:19.803Z,0
2019-02-10T02:33:29.863Z,0
2019-02-10T02:34:39.670Z,0
2019-02-10T02:35:49.492Z,0
2019-02-10T02:37:07.553Z,0
2019-02-10T02:38:18.069Z,0
2019-02-10T02:39:28.171Z,0
2019-02-10T02:40:38.272Z,0
2019-02-10T02:41:48.347Z,0
2019-02-10T02:42:58.401Z,0
2019-02-10T02:44:10.551Z,0
2019-02-10T02:45:20.358Z,0
2019-02-10T02:46:30.179Z,0
2019-02-10T02:47:39.986Z,0
2019-02-10T02:48:50.032Z,0
2019-02-10T02:50:00.438Z,0
2019-02-10T02:51:11.070Z,0
2019-02-10T02:52:21.150Z,0
2019-02-10T02:53:30.952Z,0
2019-02-10T02:54:40.989Z,0
2019-02-10T02:55:50.807Z,0
2019-02-10T02:57:00.864Z,0
2019-02-10T02:58:10.703Z,0
2019-02-10T02:59:20.762Z,0
2019-02-10T03:00:30.777Z,0
2019-02-10T03:01:40.850Z,0
2019-02-10T03:34:14.156Z,0
2019-02-10T03:35:24.189Z,0
2019-02-10T03:36:34.247Z,0
2019-02-10T03:37:43.855Z,0
2019-02-10T03:38:53.638Z,0
2019-02-10T03:40:04.940Z,0
2019-02-10T03:41:14.993Z,0
2019-02-10T03:42:25.042Z,0
2019-02-10T03:43:34.866Z,0
2019-02-10T03:44:44.948Z,0
2019-02-10T03:45:54.991Z,0
2019-02-10T03:47:07.157Z,0
2019-02-10T03:48:17.219Z,0
2019-02-10T03:49:27.317Z,0
2019-02-10T03:50:37.378Z,0
2019-02-10T03:51:47.453Z,0
2019-02-10T03:52:57.536Z,0
2019-02-10T03:54:09.610Z,0
2019-02-10T03:55:19.444Z,0
2019-02-10T03:56:29.516Z,0
2019-02-10T03:57:39.341Z,0
2019-02-10T03:58:49.212Z,0
2019-02-10T03:59:58.998Z,0
2019-02-10T04:01:08.868Z,0
2019-02-10T04:02:18.719Z,0
2019-02-10T04:03:28.790Z,0
2019-02-10T04:04:38.589Z,0
2019-02-10T04:05:48.636Z,0
2019-02-10T04:06:58.714Z,0
2019-02-10T04:08:08.787Z,0
2019-02-10T04:09:18.574Z,0
2019-02-10T04:10:28.620Z,0
2019-02-10T04:11:38.676Z,0
2019-02-10T04:12:48.796Z,0
2019-02-10T04:13:58.849Z,0
2019-02-10T04:15:08.890Z,0
2019-02-10T04:16:18.958Z,0
2019-02-10T04:17:29.011Z,0
2019-02-10T04:18:39.084Z,0
2019-02-10T04:19:49.154Z,0
2019-02-10T04:20:58.966Z,0
2019-02-10T04:22:09.073Z,0
2019-02-10T04:23:18.864Z,0
2019-02-10T04:24:28.659Z,0
2019-02-10T04:25:38.722Z,0
2019-02-10T04:26:48.313Z,0
2019-02-10T04:27:58.115Z,0
2019-02-10T04:29:08.293Z,0
2019-02-10T04:30:18.358Z,0
2019-02-10T04:31:28.416Z,0
2019-02-10T04:32:38.519Z,0
2019-02-10T04:33:48.304Z,0
2019-02-10T04:34:58.098Z,0
2019-02-10T04:36:08.181Z,0
2019-02-10T04:37:18.280Z,0
2019-02-10T04:38:28.069Z,0
2019-02-10T04:39:37.858Z,0
2019-02-10T04:40:47.926Z,0
2019-02-10T04:41:58.003Z,0
2019-02-10T04:43:08.092Z,0
2019-02-10T04:44:17.610Z,0
2019-02-10T04:45:27.657Z,0
2019-02-10T04:46:37.723Z,0
2019-02-10T04:47:47.250Z,0
2019-02-10T04:48:57.329Z,0
2019-02-10T04:50:08.462Z,0
2019-02-10T04:51:18.514Z,0
2019-02-10T04:52:28.561Z,0
2019-02-10T04:53:38.361Z,0
2019-02-10T04:54:48.400Z,0
2019-02-10T04:55:58.213Z,0
2019-02-10T04:57:08.015Z,0
2019-02-10T04:58:18.070Z,0
2019-02-10T04:59:28.123Z,0
2019-02-10T05:00:38.274Z,0
2019-02-10T05:01:48.331Z,0
2019-02-10T05:02:58.428Z,0
2019-02-10T05:04:08.231Z,0
2019-02-10T05:05:18.305Z,0
2019-02-10T05:06:28.101Z,0
2019-02-10T05:07:38.159Z,0
2019-02-10T05:08:47.732Z,0
2019-02-10T05:09:57.809Z,0
2019-02-10T05:11:10.517Z,0
2019-02-10T05:12:20.326Z,0
2019-02-10T05:13:30.395Z,0
2019-02-10T05:14:40.202Z,0
2019-02-10T05:15:50.285Z,0
2019-02-10T05:17:00.351Z,0
2019-02-10T05:18:10.226Z,0
2019-02-10T05:19:20.280Z,0
2019-02-10T05:20:30.329Z,0
2019-02-10T05:21:40.383Z,0
2019-02-10T05:22:50.199Z,0
2019-02-10T05:24:07.904Z,0
2019-02-10T05:25:17.985Z,0
2019-02-10T05:26:27.763Z,0
2019-02-10T05:27:37.631Z,0
2019-02-10T05:28:47.690Z,0
2019-02-10T05:29:57.753Z,0
2019-02-10T05:31:07.905Z,0
2019-02-10T05:32:17.965Z,0
2019-02-10T05:33:28.042Z,0
2019-02-10T05:34:38.091Z,0
2019-02-10T05:35:48.133Z,0
2019-02-10T05:36:57.928Z,0
2019-02-10T05:38:11.881Z,0
2019-02-10T05:39:21.945Z,0
2019-02-10T05:40:31.737Z,0
2019-02-10T05:41:41.846Z,0
2019-02-10T05:42:51.633Z,0
2019-02-10T05:44:01.470Z,0
2019-02-10T05:45:11.024Z,0
2019-02-10T05:46:21.076Z,0
2019-02-10T05:47:31.149Z,0
2019-02-10T05:48:41.227Z,0
2019-02-10T05:49:51.032Z,0
2019-02-10T05:51:01.159Z,4
2019-02-10T05:52:11.240Z,4
2019-02-10T05:53:21.276Z,4
2019-02-10T05:54:31.348Z,0
2019-02-10T05:55:41.406Z,4
2019-02-10T05:56:51.488Z,4
2019-02-10T05:58:02.194Z,4
2019-02-10T05:59:11.830Z,8
2019-02-10T06:00:22.162Z,4
2019-02-10T06:01:32.203Z,8
2019-02-10T06:02:42.256Z,4
2019-02-10T06:03:52.316Z,8
2019-02-10T06:05:02.373Z,8
2019-02-10T06:06:12.425Z,12
2019-02-10T06:07:23.410Z,12
2019-02-10T06:08:33.467Z,16
2019-02-10T06:09:43.526Z,16
2019-02-10T06:10:53.448Z,16
2019-02-10T06:12:03.688Z,16
2019-02-10T06:13:13.756Z,20
2019-02-10T06:14:23.548Z,20
2019-02-10T06:15:33.338Z,28
2019-02-10T06:16:43.440Z,32
2019-02-10T06:17:53.510Z,32
2019-02-10T06:19:03.593Z,36
2019-02-10T06:20:13.386Z,36
2019-02-10T06:21:23.187Z,40
2019-02-10T06:22:33.294Z,44
2019-02-10T06:23:43.384Z,48
2019-02-10T06:24:53.433Z,52
2019-02-10T06:26:03.249Z,56
2019-02-10T06:27:13.086Z,60
2019-02-10T06:28:22.937Z,64
2019-02-10T06:29:32.738Z,72
2019-02-10T06:30:42.800Z,80
2019-02-10T06:31:52.866Z,88
2019-02-10T06:33:02.926Z,92
2019-02-10T06:34:12.726Z,100
2019-02-10T06:35:22.791Z,104
2019-02-10T06:36:32.859Z,116
2019-02-10T06:37:42.915Z,124
2019-02-10T06:38:52.965Z,132
2019-02-10T06:40:04.031Z,140
2019-02-10T06:41:14.083Z,148
2019-02-10T06:42:25.079Z,152
2019-02-10T06:43:34.879Z,160
2019-02-10T06:44:44.681Z,168
2019-02-10T06:45:54.468Z,172
2019-02-10T06:47:04.282Z,180
2019-02-10T06:48:14.356Z,180
2019-02-10T06:49:24.390Z,196
2019-02-10T06:50:34.435Z,192
2019-02-10T06:51:44.601Z,200
2019-02-10T06:52:54.384Z,212
2019-02-10T06:54:04.439Z,224
2019-02-10T06:55:14.484Z,240
2019-02-10T06:56:24.546Z,272
2019-02-10T06:57:34.594Z,284
2019-02-10T06:58:44.117Z,288
2019-02-10T06:59:55.963Z,284
2019-02-10T07:01:05.943Z,276
2019-02-10T07:02:16.006Z,272
2019-02-10T07:03:25.800Z,288
2019-02-10T07:04:35.574Z,300
2019-02-10T07:05:45.371Z,328
2019-02-10T07:06:55.424Z,360
2019-02-10T07:08:05.830Z,396
2019-02-10T07:09:15.932Z,400
2019-02-10T07:10:25.997Z,388
2019-02-10T07:11:36.061Z,404
2019-02-10T07:12:46.108Z,424
2019-02-10T07:13:55.649Z,412
2019-02-10T07:15:07.046Z,436
2019-02-10T07:16:16.833Z,456
2019-02-10T07:17:26.879Z,468
2019-02-10T07:18:36.404Z,464
2019-02-10T07:19:46.452Z,464
2019-02-10T07:20:56.502Z,592
2019-02-10T07:22:06.301Z,568
2019-02-10T07:23:16.118Z,480
2019-02-10T07:24:25.911Z,524
2019-02-10T07:25:35.959Z,560
2019-02-10T07:26:46.066Z,616
2019-02-10T07:27:55.866Z,604
2019-02-10T07:29:05.924Z,624
2019-02-10T07:30:15.468Z,648
2019-02-10T07:31:25.524Z,704
2019-02-10T07:32:35.563Z,680
2019-02-10T07:33:45.638Z,716
2019-02-10T07:34:55.925Z,656
2019-02-10T07:36:05.991Z,632
2019-02-10T07:37:15.828Z,764
2019-02-10T07:38:25.896Z,804
2019-02-10T07:39:35.943Z,784
2019-02-10T07:40:45.762Z,808
2019-02-10T07:41:55.845Z,836
2019-02-10T07:43:05.895Z,808
2019-02-10T07:44:15.924Z,752
2019-02-10T07:45:25.996Z,732
2019-02-10T07:46:36.036Z,728
2019-02-10T07:47:46.132Z,680
2019-02-10T07:48:56.200Z,656
2019-02-10T07:50:06.307Z,688
2019-02-10T07:51:16.085Z,720
2019-02-10T07:52:25.899Z,752
2019-02-10T07:53:35.960Z,760
2019-02-10T07:54:49.673Z,724
2019-02-10T07:55:59.732Z,724
2019-02-10T07:57:09.804Z,676
2019-02-10T07:58:19.941Z,688
2019-02-10T07:59:30.046Z,660
2019-02-10T08:00:40.095Z,700
2019-02-10T08:01:50.154Z,732
2019-02-10T08:02:59.951Z,872
2019-02-10T08:04:09.769Z,800
2019-02-10T08:05:19.834Z,788
2019-02-10T08:06:29.367Z,716
2019-02-10T08:07:39.469Z,812
2019-02-10T08:08:54.011Z,692
2019-02-10T08:10:04.073Z,736
2019-02-10T08:11:14.125Z,784
2019-02-10T08:12:24.187Z,760
2019-02-10T08:13:35.637Z,840
2019-02-10T08:14:45.697Z,912
2019-02-10T08:15:55.746Z,812
2019-02-10T08:17:06.547Z,776
2019-02-10T08:18:16.630Z,764
2019-02-10T08:19:26.694Z,816
2019-02-10T08:20:36.477Z,760
2019-02-10T08:21:46.299Z,920
2019-02-10T08:22:56.358Z,788
2019-02-10T08:24:06.445Z,816
2019-02-10T08:25:16.584Z,932
2019-02-10T08:26:26.661Z,896
2019-02-10T08:27:36.746Z,836
2019-02-10T08:28:46.813Z,848
2019-02-10T08:29:56.878Z,848
2019-02-10T08:31:06.932Z,876
2019-02-10T08:32:16.997Z,1000
2019-02-10T08:33:27.059Z,972
2019-02-10T08:34:37.115Z,960
2019-02-10T08:35:47.184Z,1064
2019-02-10T08:36:57.243Z,1192
2019-02-10T08:38:07.319Z,1160
2019-02-10T08:39:17.367Z,1108
2019-02-10T08:40:27.416Z,1152
2019-02-10T08:41:37.470Z,1180
2019-02-10T08:42:47.575Z,1160
2019-02-10T08:43:57.680Z,1072
2019-02-10T08:45:10.407Z,976
2019-02-10T08:46:20.257Z,968
2019-02-10T08:47:38.348Z,916
2019-02-10T08:48:48.563Z,900
2019-02-10T08:49:58.111Z,892
2019-02-10T08:51:09.508Z,876
2019-02-10T08:52:19.713Z,920
2019-02-10T08:53:29.771Z,976
2019-02-10T08:54:39.844Z,1000
2019-02-10T08:55:49.890Z,944
2019-02-10T08:56:59.947Z,1032
2019-02-10T08:58:09.995Z,964
2019-02-10T08:59:20.067Z,1120
2019-02-10T09:00:30.245Z,1020
2019-02-10T09:01:40.299Z,1076
2019-02-10T09:02:50.380Z,1028
2019-02-10T09:04:02.317Z,1168
2019-02-10T09:05:12.418Z,1260
2019-02-10T09:06:22.238Z,1156
2019-02-10T09:07:32.048Z,1408
2019-02-10T09:08:42.096Z,1164
2019-02-10T09:09:52.184Z,1104
2019-02-10T09:11:02.265Z,908
2019-02-10T09:12:12.080Z,1084
2019-02-10T09:13:22.169Z,1104
2019-02-10T09:14:32.252Z,1468
2019-02-10T09:15:42.307Z,1700
2019-02-10T09:16:52.355Z,1820
2019-02-10T09:18:02.414Z,1824
2019-02-10T09:19:12.489Z,1800
2019-02-10T09:20:22.570Z,1676
2019-02-10T09:21:32.649Z,1544
2019-02-10T09:22:42.769Z,1480
2019-02-10T09:23:52.827Z,1464
2019-02-10T09:25:02.897Z,1360
2019-02-10T09:26:12.961Z,1296
2019-02-10T09:27:22.506Z,1276
2019-02-10T09:28:32.058Z,1228
2019-02-10T09:29:42.140Z,1188
2019-02-10T09:30:52.211Z,1000
2019-02-10T09:32:02.531Z,892
2019-02-10T09:33:12.645Z,904
2019-02-10T09:34:22.729Z,984
2019-02-10T09:35:32.552Z,952
2019-02-10T09:36:42.125Z,1116
2019-02-10T09:37:52.197Z,1140
2019-02-10T09:39:02.319Z,1152
2019-02-10T09:40:18.701Z,1480
2019-02-10T09:41:28.544Z,1288
2019-02-10T09:42:38.604Z,1324
2019-02-10T09:43:48.653Z,1128
2019-02-10T09:44:58.730Z,1164
2019-02-10T09:46:08.631Z,1224
2019-02-10T09:47:18.698Z,1196
2019-02-10T09:48:28.756Z,992
2019-02-10T09:49:38.838Z,960
2019-02-10T09:50:48.654Z,1072
2019-02-10T09:51:58.453Z,1184
2019-02-10T09:53:08.536Z,1168
2019-02-10T09:54:18.613Z,1236
2019-02-10T09:55:28.676Z,1176
2019-02-10T09:56:38.743Z,1376
2019-02-10T09:57:48.869Z,1516
2019-02-10T09:58:58.950Z,1748
2019-02-10T10:00:09.435Z,1416
2019-02-10T10:01:19.152Z,1256
2019-02-10T10:02:29.211Z,1324
2019-02-10T10:03:39.081Z,1520
2019-02-10T10:04:48.675Z,1476
2019-02-10T10:05:58.240Z,1612
2019-02-10T10:07:08.989Z,1736
2019-02-10T10:08:18.525Z,1536
2019-02-10T10:09:28.597Z,1524
2019-02-10T10:10:38.405Z,1780
2019-02-10T10:11:48.209Z,1880
2019-02-10T10:12:58.275Z,1492
2019-02-10T10:14:08.359Z,2008
2019-02-10T10:15:18.449Z,1600
2019-02-10T10:16:28.510Z,1336
2019-02-10T10:17:38.583Z,1220
2019-02-10T10:18:48.657Z,1412
2019-02-10T10:19:59.863Z,1400
2019-02-10T10:21:09.933Z,1396
2019-02-10T10:22:19.742Z,1668
2019-02-10T10:23:29.800Z,1736
2019-02-10T10:24:39.850Z,1756
2019-02-10T10:25:58.008Z,1748
2019-02-10T10:27:08.072Z,1704
2019-02-10T10:28:17.932Z,1728
2019-02-10T10:29:28.053Z,1792
2019-02-10T10:30:38.145Z,1628
2019-02-10T10:31:48.241Z,1564
2019-02-10T10:32:58.066Z,1884
2019-02-10T10:34:08.138Z,1776
2019-02-10T10:35:17.707Z,1748
2019-02-10T10:36:27.803Z,1888
2019-02-10T10:37:37.970Z,1996
2019-02-10T10:38:48.031Z,2096
2019-02-10T10:39:59.293Z,2300
2019-02-10T10:41:10.238Z,1984
2019-02-10T10:42:20.284Z,1888
2019-02-10T10:43:30.083Z,1776
2019-02-10T10:44:39.921Z,1976
2019-02-10T10:45:49.460Z,2112
2019-02-10T10:46:59.510Z,2172
2019-02-10T10:48:09.579Z,2096
2019-02-10T10:49:19.650Z,2576
2019-02-10T10:50:29.758Z,2292
2019-02-10T10:51:41.744Z,1872
2019-02-10T10:52:51.570Z,2224
2019-02-10T10:54:01.383Z,2116
2019-02-10T10:55:11.462Z,2020
2019-02-10T10:56:21.258Z,2128
2019-02-10T10:57:32.475Z,1980
2019-02-10T10:58:42.541Z,1736
2019-02-10T10:59:52.615Z,2072
2019-02-10T11:01:02.683Z,1952
2019-02-10T11:02:12.524Z,1800
2019-02-10T11:03:24.309Z,1828
2019-02-10T11:04:34.349Z,2080
2019-02-10T11:05:44.400Z,1780
2019-02-10T11:06:54.217Z,2092
2019-02-10T11:08:03.818Z,2024
2019-02-10T11:09:13.907Z,1948
2019-02-10T11:10:23.736Z,1844
2019-02-10T11:11:33.832Z,1496
2019-02-10T11:12:43.915Z,1644
2019-02-10T11:13:53.719Z,1752
2019-02-10T11:15:03.799Z,1836
2019-02-10T11:16:14.033Z,1652
2019-02-10T11:17:24.111Z,1544
2019-02-10T11:18:34.235Z,1552
2019-02-10T11:19:44.066Z,1812
2019-02-10T11:20:53.892Z,1800
2019-02-10T11:22:04.038Z,1576
2019-02-10T11:23:13.857Z,1408
2019-02-10T11:24:31.115Z,1584
2019-02-10T11:25:41.245Z,1860
2019-02-10T11:26:51.068Z,1736
2019-02-10T11:28:02.167Z,1780
2019-02-10T11:29:12.365Z,1828
2019-02-10T11:30:22.443Z,1748
2019-02-10T11:31:32.522Z,1472
2019-02-10T11:32:42.593Z,1576
2019-02-10T11:33:52.675Z,1508
2019-02-10T11:35:02.751Z,1668
2019-02-10T11:36:12.841Z,1556
2019-02-10T11:37:29.246Z,1628
2019-02-10T11:38:39.380Z,1852
2019-02-10T11:39:51.369Z,2016
2019-02-10T11:41:00.712Z,1844
2019-02-10T11:42:10.812Z,2028
2019-02-10T11:43:20.890Z,1988
2019-02-10T11:44:30.977Z,1856
2019-02-10T11:45:41.108Z,1912
2019-02-10T11:46:51.167Z,1692
2019-02-10T11:48:02.252Z,1564
2019-02-10T11:49:12.113Z,1628
2019-02-10T11:50:21.921Z,1556
2019-02-10T11:51:32.039Z,1592
2019-02-10T11:52:42.093Z,1476
2019-02-10T11:53:52.153Z,1524
2019-02-10T11:55:01.967Z,1476
2019-02-10T11:56:12.060Z,1416
2019-02-10T11:57:22.187Z,1520
2019-02-10T11:58:32.234Z,1468
2019-02-10T11:59:42.300Z,1436
2019-02-10T12:00:52.382Z,1368
2019-02-10T12:02:02.482Z,1332
2019-02-10T12:03:12.570Z,1364
2019-02-10T12:04:22.668Z,1472
2019-02-10T12:05:32.800Z,1468
2019-02-10T12:06:42.868Z,1300
2019-02-10T12:07:52.743Z,1344
2019-02-10T12:09:02.910Z,1456
2019-02-10T12:10:12.979Z,1596
2019-02-10T12:11:23.068Z,1408
2019-02-10T12:12:33.163Z,1520
2019-02-10T12:13:45.181Z,1408
2019-02-10T12:14:55.250Z,1476
2019-02-10T12:16:05.306Z,1384
2019-02-10T12:17:14.854Z,1248
2019-02-10T12:18:24.920Z,1164
2019-02-10T12:19:35.942Z,1292
2019-02-10T12:20:45.859Z,1284
2019-02-10T12:21:55.948Z,1484
2019-02-10T12:23:06.025Z,1416
2019-02-10T12:24:16.156Z,1472
2019-02-10T12:25:25.996Z,1472
2019-02-10T12:26:36.099Z,1552
2019-02-10T12:27:45.675Z,1444
2019-02-10T12:28:55.740Z,1280
2019-02-10T12:30:08.103Z,1312
2019-02-10T12:31:18.272Z,1320
2019-02-10T12:32:28.070Z,1480
2019-02-10T12:33:37.888Z,1668
2019-02-10T12:34:47.733Z,1512
2019-02-10T12:36:05.393Z,1508
2019-02-10T12:37:15.449Z,1544
2019-02-10T12:38:25.561Z,1688
2019-02-10T12:39:35.667Z,1856
2019-02-10T12:40:45.735Z,2088
2019-02-10T12:41:56.151Z,2416
2019-02-10T12:43:06.237Z,2608
2019-02-10T12:44:16.044Z,3164
2019-02-10T12:45:25.626Z,3324
2019-02-10T12:46:35.694Z,3156
2019-02-10T12:47:45.779Z,3144
2019-02-10T12:48:55.592Z,3256
2019-02-10T12:50:05.733Z,2944
2019-02-10T12:51:15.572Z,3000
2019-02-10T12:52:25.682Z,2972
2019-02-10T12:53:35.752Z,2628
2019-02-10T12:54:45.821Z,2980
2019-02-10T12:55:55.889Z,3072
2019-02-10T12:57:05.706Z,3280
2019-02-10T12:58:15.770Z,3200
2019-02-10T12:59:25.352Z,4016
2019-02-10T13:00:35.460Z,4396
2019-02-10T13:01:45.688Z,4924
2019-02-10T13:02:55.770Z,5000
2019-02-10T13:04:05.863Z,4372
2019-02-10T13:05:15.429Z,4828
2019-02-10T13:06:25.219Z,4856
2019-02-10T13:07:35.330Z,4668
2019-02-10T13:08:45.400Z,5132
2019-02-10T13:09:55.474Z,5600
2019-02-10T13:11:05.303Z,5284
2019-02-10T13:12:15.391Z,5580
2019-02-10T13:13:26.875Z,5484
2019-02-10T13:14:36.703Z,5512
2019-02-10T13:15:46.808Z,5288
2019-02-10T13:16:56.935Z,5060
2019-02-10T13:18:07.018Z,5752
2019-02-10T13:19:17.137Z,5496
2019-02-10T13:20:27.208Z,5772
2019-02-10T13:21:37.065Z,5948
2019-02-10T13:22:47.135Z,6036
2019-02-10T13:23:57.236Z,5736
2019-02-10T13:25:07.494Z,5508
2019-02-10T13:26:17.584Z,5456
2019-02-10T13:27:27.147Z,5308
2019-02-10T13:28:37.210Z,5088
2019-02-10T13:29:47.276Z,4748
2019-02-10T13:30:57.388Z,4820
2019-02-10T13:32:07.315Z,4720
2019-02-10T13:33:17.412Z,4536
2019-02-10T13:34:27.944Z,4408
2019-02-10T13:35:38.114Z,4176
2019-02-10T13:36:48.197Z,4068
2019-02-10T13:37:58.260Z,3952
2019-02-10T13:39:09.570Z,3916
2019-02-10T13:40:23.977Z,3848
2019-02-10T13:41:34.056Z,3840
2019-02-10T13:42:44.194Z,3892
2019-02-10T13:43:54.052Z,3920
2019-02-10T13:45:04.271Z,3888
2019-02-10T13:46:14.341Z,4072
2019-02-10T13:47:24.147Z,4100
2019-02-10T13:48:34.209Z,3940
2019-02-10T13:49:44.022Z,3956
2019-02-10T13:50:53.579Z,3776
2019-02-10T13:52:03.672Z,3552
2019-02-10T13:53:14.007Z,3304
2019-02-10T13:54:24.098Z,3116
2019-02-10T13:55:33.968Z,3020
2019-02-10T13:56:43.743Z,3008
2019-02-10T13:57:53.825Z,2888
2019-02-10T13:59:03.635Z,2792
2019-02-10T14:00:14.381Z,2692
2019-02-10T14:01:24.449Z,2604
2019-02-10T14:02:34.310Z,2536
2019-02-10T14:03:44.393Z,2476
2019-02-10T14:04:54.224Z,2416
2019-02-10T14:06:05.559Z,2352
2019-02-10T14:07:15.628Z,2304
2019-02-10T14:08:25.213Z,2280
2019-02-10T14:09:35.069Z,2268
2019-02-10T14:10:45.141Z,2264
2019-02-10T14:11:56.650Z,2256
2019-02-10T14:13:06.741Z,2244
2019-02-10T14:14:16.855Z,2224
2019-02-10T14:15:26.989Z,2200
2019-02-10T14:16:37.090Z,2172
2019-02-10T14:17:46.920Z,2148
2019-02-10T14:18:57.008Z,2160
2019-02-10T14:20:06.843Z,2192
2019-02-10T14:21:16.926Z,2292
2019-02-10T14:22:27.005Z,2312
2019-02-10T14:23:37.085Z,2240
2019-02-10T14:24:46.951Z,2372
2019-02-10T14:25:57.044Z,2460
2019-02-10T14:27:07.624Z,2424
2019-02-10T14:28:17.501Z,2440
2019-02-10T14:29:27.589Z,2412
2019-02-10T14:30:37.428Z,2248
2019-02-10T14:31:47.275Z,2188
2019-02-10T14:32:57.121Z,2188
2019-02-10T14:34:08.319Z,2124
2019-02-10T14:35:20.133Z,2080
2019-02-10T14:36:30.039Z,1980
2019-02-10T14:37:40.128Z,2012
2019-02-10T14:38:50.233Z,2060
2019-02-10T14:40:00.350Z,2004
2019-02-10T14:41:10.443Z,1956
2019-02-10T14:42:20.317Z,1812
2019-02-10T14:43:30.388Z,1792
2019-02-10T14:44:40.460Z,1824
2019-02-10T14:45:50.286Z,1776
2019-02-10T14:47:00.355Z,1880
2019-02-10T14:48:10.493Z,1976
2019-02-10T14:49:20.609Z,1788
2019-02-10T14:50:31.520Z,1760
2019-02-10T14:51:41.349Z,1828
2019-02-10T14:52:51.421Z,1868
2019-02-10T14:54:01.496Z,1824
2019-02-10T14:55:11.573Z,1800
2019-02-10T14:56:21.656Z,1756
2019-02-10T14:57:31.504Z,1732
2019-02-10T14:58:47.922Z,1636
2019-02-10T14:59:57.990Z,1592
2019-02-10T15:01:08.834Z,1536
2019-02-10T15:02:18.674Z,1472
2019-02-10T15:03:28.790Z,1408
2019-02-10T15:04:38.871Z,1352
2019-02-10T15:05:48.958Z,1300
2019-02-10T15:06:59.070Z,1256
2019-02-10T15:08:08.890Z,1220
2019-02-10T15:09:18.938Z,1188
2019-02-10T15:10:28.764Z,1148
2019-02-10T15:11:38.867Z,1116
2019-02-10T15:12:48.967Z,1088
2019-02-10T15:13:59.094Z,1064
2019-02-10T15:15:09.477Z,1040
2019-02-10T15:16:19.546Z,1024
2019-02-10T15:17:29.832Z,1024
2019-02-10T15:18:40.005Z,996
2019-02-10T15:19:50.083Z,944
2019-02-10T15:21:00.310Z,916
2019-02-10T15:22:10.402Z,888
2019-02-10T15:23:20.284Z,864
2019-02-10T15:24:30.146Z,836
2019-02-10T15:25:40.040Z,800
2019-02-10T15:26:50.175Z,768
2019-02-10T15:28:00.047Z,740
2019-02-10T15:29:10.063Z,712
2019-02-10T15:30:20.245Z,684
2019-02-10T15:31:30.346Z,664
2019-02-10T15:32:40.575Z,640
2019-02-10T15:33:50.702Z,612
2019-02-10T15:35:01.646Z,588
2019-02-10T15:36:11.522Z,560
2019-02-10T15:37:21.374Z,536
2019-02-10T15:38:31.527Z,512
2019-02-10T15:39:41.502Z,488
2019-02-10T15:40:57.310Z,452
2019-02-10T15:42:14.223Z,420
2019-02-10T15:43:23.793Z,396
2019-02-10T15:44:33.680Z,376
2019-02-10T15:45:43.805Z,356
2019-02-10T15:46:53.904Z,344
2019-02-10T15:48:03.717Z,340
2019-02-10T15:49:13.591Z,336
2019-02-10T15:50:23.680Z,320
2019-02-10T15:51:43.823Z,288
2019-02-10T15:52:53.958Z,252
2019-02-10T15:54:04.098Z,224
2019-02-10T15:55:13.936Z,208
2019-02-10T15:56:24.064Z,188
2019-02-10T15:57:34.190Z,168
2019-02-10T15:58:44.263Z,148
2019-02-10T15:59:54.352Z,128
2019-02-10T16:01:04.253Z,116
2019-02-10T16:02:14.235Z,108
2019-02-10T16:03:25.432Z,96
2019-02-10T16:04:35.743Z,84
2019-02-10T16:05:47.442Z,76
2019-02-10T16:06:57.509Z,68
2019-02-10T16:08:27.936Z,60
2019-02-10T16:09:39.786Z,56
2019-02-10T16:11:23.349Z,44
2019-02-10T16:12:33.497Z,36
2019-02-10T16:13:43.625Z,28
2019-02-10T16:14:53.709Z,28
2019-02-10T16:16:04.611Z,24
2019-02-10T16:17:14.795Z,20
2019-02-10T16:18:24.614Z,16
2019-02-10T16:19:34.688Z,12
2019-02-10T16:20:44.794Z,12
2019-02-10T16:21:54.895Z,12
2019-02-10T16:23:07.914Z,8
2019-02-10T16:24:17.787Z,8
2019-02-10T16:25:27.865Z,4
2019-02-10T16:26:37.716Z,4
2019-02-10T16:27:47.548Z,4
2019-02-10T16:28:57.660Z,4
2019-02-10T16:30:07.738Z,4
2019-02-10T16:31:17.875Z,0
2019-02-10T16:32:27.994Z,4
2019-02-10T16:33:38.207Z,4
2019-02-10T16:34:48.343Z,0
2019-02-10T16:35:58.148Z,0
2019-02-10T16:37:09.585Z,0
2019-02-10T16:38:19.756Z,0
2019-02-10T16:39:29.356Z,0
2019-02-10T16:40:39.225Z,0
2019-02-10T16:41:49.313Z,0
2019-02-10T16:42:59.151Z,0
2019-02-10T16:44:09.269Z,0
2019-02-10T16:45:19.146Z,0
2019-02-10T16:46:29.400Z,0
2019-02-10T16:47:39.317Z,0
2019-02-10T16:48:49.779Z,0
2019-02-10T16:50:00.174Z,0
2019-02-10T16:51:10.345Z,0
2019-02-10T16:52:20.456Z,0
2019-02-10T16:53:30.642Z,0
2019-02-10T16:54:40.757Z,0
2019-02-10T16:55:50.927Z,0
2019-02-10T16:57:01.041Z,0